Terminal Aerodrome Forecast
Issued by NWS Wakefield, VA

Current Version | Previous Version | Text Only | Print | Product List | Glossary On
Versions: 1 2 3 4 5 6 7 8 9 10 11 12 13 14 15
000
FTUS41 KAKQ 241400 CCA
TAFRIC
TAF COR
KRIC 241400Z 2414/2512 10009G18KT 5SM -RA SCT009 BKN035 OVC070
     FM241530 09010G18KT 4SM RA OVC009
     FM242000 10012KT 3SM -RA BR OVC010
     FM250000 10011KT 3SM -RA BR OVC006
     FM250700 16005KT 4SM BR OVC004=

USA.gov is the U.S. government's official web portal to all federal, state and local government web resources and services.